sensor_id;sensor_type;location;lat;lon;timestamp;P1;durP1;ratioP1;P2;durP2;ratioP2
2558;SDS011;1289;53.488;10.006;2023-10-09T00:01:50;4.50;;;4.10;;
2558;SDS011;1289;53.488;10.006;2023-10-09T00:04:18;4.97;;;4.47;;
2558;SDS011;1289;53.488;10.006;2023-10-09T00:06:45;6.20;;;4.83;;
2558;SDS011;1289;53.488;10.006;2023-10-09T00:09:13;6.10;;;5.60;;
2558;SDS011;1289;53.488;10.006;2023-10-09T00:11:57;6.00;;;5.10;;
2558;SDS011;1289;53.488;10.006;2023-10-09T00:14:26;5.30;;;4.83;;
2558;SDS011;1289;53.488;10.006;2023-10-09T00:16:55;5.37;;;4.77;;
2558;SDS011;1289;53.488;10.006;2023-10-09T00:19:30;5.30;;;4.33;;
2558;SDS011;1289;53.488;10.006;2023-10-09T00:21:58;6.33;;;5.57;;
2558;SDS011;1289;53.488;10.006;2023-10-09T00:24:31;5.20;;;4.70;;
2558;SDS011;1289;53.488;10.006;2023-10-09T00:26:59;8.17;;;5.33;;
2558;SDS011;1289;53.488;10.006;2023-10-09T00:29:38;6.77;;;5.20;;
2558;SDS011;1289;53.488;10.006;2023-10-09T00:32:10;5.07;;;4.67;;
2558;SDS011;1289;53.488;10.006;2023-10-09T00:34:47;6.60;;;4.97;;
2558;SDS011;1289;53.488;10.006;2023-10-09T00:37:16;6.37;;;5.60;;
2558;SDS011;1289;53.488;10.006;2023-10-09T00:39:48;5.90;;;5.30;;
2558;SDS011;1289;53.488;10.006;2023-10-09T00:42:22;5.30;;;4.87;;
2558;SDS011;1289;53.488;10.006;2023-10-09T00:44:54;7.70;;;4.67;;
2558;SDS011;1289;53.488;10.006;2023-10-09T00:47:21;5.70;;;4.93;;
2558;SDS011;1289;53.488;10.006;2023-10-09T00:49:52;5.13;;;4.53;;
2558;SDS011;1289;53.488;10.006;2023-10-09T00:52:25;8.30;;;4.77;;
2558;SDS011;1289;53.488;10.006;2023-10-09T00:55:04;4.80;;;4.30;;
2558;SDS011;1289;53.488;10.006;2023-10-09T00:57:41;5.13;;;4.40;;
2558;SDS011;1289;53.488;10.006;2023-10-09T01:00:13;7.93;;;5.27;;
2558;SDS011;1289;53.488;10.006;2023-10-09T01:02:57;4.13;;;3.83;;
2558;SDS011;1289;53.488;10.006;2023-10-09T01:05:36;8.63;;;4.97;;
2558;SDS011;1289;53.488;10.006;2023-10-09T01:08:04;4.20;;;3.90;;
2558;SDS011;1289;53.488;10.006;2023-10-09T01:10:49;4.97;;;4.20;;
2558;SDS011;1289;53.488;10.006;2023-10-09T01:13:19;6.77;;;3.80;;
2558;SDS011;1289;53.488;10.006;2023-10-09T01:15:52;4.30;;;3.93;;
2558;SDS011;1289;53.488;10.006;2023-10-09T01:18:23;4.50;;;4.10;;
2558;SDS011;1289;53.488;10.006;2023-10-09T01:20:57;6.80;;;3.97;;
2558;SDS011;1289;53.488;10.006;2023-10-09T01:23:25;9.60;;;4.57;;
2558;SDS011;1289;53.488;10.006;2023-10-09T01:25:54;5.73;;;4.50;;
2558;SDS011;1289;53.488;10.006;2023-10-09T01:28:21;4.80;;;3.90;;
2558;SDS011;1289;53.488;10.006;2023-10-09T01:30:49;4.70;;;4.30;;
2558;SDS011;1289;53.488;10.006;2023-10-09T01:33:16;4.80;;;4.17;;
2558;SDS011;1289;53.488;10.006;2023-10-09T01:35:49;4.60;;;4.20;;
2558;SDS011;1289;53.488;10.006;2023-10-09T01:38:20;5.30;;;4.43;;
2558;SDS011;1289;53.488;10.006;2023-10-09T01:40:58;7.67;;;4.53;;
2558;SDS011;1289;53.488;10.006;2023-10-09T01:43:32;4.80;;;4.40;;
2558;SDS011;1289;53.488;10.006;2023-10-09T01:45:59;4.70;;;4.20;;
2558;SDS011;1289;53.488;10.006;2023-10-09T01:48:27;5.17;;;4.37;;
2558;SDS011;1289;53.488;10.006;2023-10-09T01:50:54;4.87;;;4.47;;
2558;SDS011;1289;53.488;10.006;2023-10-09T01:53:21;4.53;;;4.10;;
2558;SDS011;1289;53.488;10.006;2023-10-09T01:55:52;4.60;;;4.20;;
2558;SDS011;1289;53.488;10.006;2023-10-09T01:58:22;4.03;;;3.70;;
2558;SDS011;1289;53.488;10.006;2023-10-09T02:00:53;4.40;;;4.00;;
2558;SDS011;1289;53.488;10.006;2023-10-09T02:03:21;5.07;;;3.80;;
2558;SDS011;1289;53.488;10.006;2023-10-09T02:05:54;4.30;;;3.90;;
2558;SDS011;1289;53.488;10.006;2023-10-09T02:08:29;4.10;;;3.80;;
2558;SDS011;1289;53.488;10.006;2023-10-09T02:11:00;4.70;;;4.17;;
2558;SDS011;1289;53.488;10.006;2023-10-09T02:13:29;4.70;;;3.70;;
2558;SDS011;1289;53.488;10.006;2023-10-09T02:15:59;4.30;;;3.90;;
2558;SDS011;1289;53.488;10.006;2023-10-09T02:18:40;4.70;;;4.10;;
2558;SDS011;1289;53.488;10.006;2023-10-09T02:21:18;5.20;;;4.27;;
2558;SDS011;1289;53.488;10.006;2023-10-09T02:23:53;6.43;;;4.13;;
2558;SDS011;1289;53.488;10.006;2023-10-09T02:26:22;5.50;;;5.00;;
2558;SDS011;1289;53.488;10.006;2023-10-09T02:28:52;4.50;;;3.73;;
2558;SDS011;1289;53.488;10.006;2023-10-09T02:31:24;4.40;;;4.00;;
2558;SDS011;1289;53.488;10.006;2023-10-09T02:33:51;4.00;;;3.70;;
2558;SDS011;1289;53.488;10.006;2023-10-09T02:36:20;4.73;;;3.90;;
2558;SDS011;1289;53.488;10.006;2023-10-09T02:38:47;4.10;;;3.80;;
2558;SDS011;1289;53.488;10.006;2023-10-09T02:41:14;5.07;;;4.03;;
2558;SDS011;1289;53.488;10.006;2023-10-09T02:43:45;4.00;;;3.70;;
2558;SDS011;1289;53.488;10.006;2023-10-09T02:46:14;9.93;;;5.43;;
2558;SDS011;1289;53.488;10.006;2023-10-09T02:48:43;6.67;;;4.20;;
2558;SDS011;1289;53.488;10.006;2023-10-09T02:51:13;4.63;;;3.97;;
2558;SDS011;1289;53.488;10.006;2023-10-09T02:53:47;4.83;;;4.13;;
2558;SDS011;1289;53.488;10.006;2023-10-09T02:56:15;4.50;;;4.10;;
2558;SDS011;1289;53.488;10.006;2023-10-09T02:58:43;4.40;;;4.00;;
2558;SDS011;1289;53.488;10.006;2023-10-09T03:01:14;4.30;;;3.90;;
2558;SDS011;1289;53.488;10.006;2023-10-09T03:03:41;5.40;;;4.10;;
2558;SDS011;1289;53.488;10.006;2023-10-09T03:06:12;4.57;;;4.17;;
2558;SDS011;1289;53.488;10.006;2023-10-09T03:08:44;4.47;;;4.10;;
2558;SDS011;1289;53.488;10.006;2023-10-09T03:11:13;4.37;;;3.97;;
2558;SDS011;1289;53.488;10.006;2023-10-09T03:13:40;7.40;;;4.70;;
2558;SDS011;1289;53.488;10.006;2023-10-09T03:16:09;4.40;;;4.00;;
2558;SDS011;1289;53.488;10.006;2023-10-09T03:18:41;8.43;;;4.40;;
2558;SDS011;1289;53.488;10.006;2023-10-09T03:21:07;4.60;;;4.20;;
2558;SDS011;1289;53.488;10.006;2023-10-09T03:23:34;5.90;;;4.17;;
2558;SDS011;1289;53.488;10.006;2023-10-09T03:26:02;4.53;;;4.10;;
2558;SDS011;1289;53.488;10.006;2023-10-09T03:28:28;5.10;;;4.70;;
2558;SDS011;1289;53.488;10.006;2023-10-09T03:30:55;9.30;;;4.50;;
2558;SDS011;1289;53.488;10.006;2023-10-09T03:33:24;4.67;;;4.27;;
2558;SDS011;1289;53.488;10.006;2023-10-09T03:35:53;6.10;;;5.47;;
2558;SDS011;1289;53.488;10.006;2023-10-09T03:38:20;4.77;;;4.33;;
2558;SDS011;1289;53.488;10.006;2023-10-09T03:40:47;4.93;;;4.47;;
2558;SDS011;1289;53.488;10.006;2023-10-09T03:43:14;4.73;;;4.23;;
2558;SDS011;1289;53.488;10.006;2023-10-09T03:45:41;6.60;;;4.33;;
2558;SDS011;1289;53.488;10.006;2023-10-09T03:48:14;6.10;;;4.60;;
2558;SDS011;1289;53.488;10.006;2023-10-09T03:50:47;5.50;;;4.47;;
2558;SDS011;1289;53.488;10.006;2023-10-09T03:53:15;5.83;;;4.50;;
2558;SDS011;1289;53.488;10.006;2023-10-09T03:55:42;5.37;;;4.37;;
2558;SDS011;1289;53.488;10.006;2023-10-09T03:58:09;4.50;;;4.10;;
2558;SDS011;1289;53.488;10.006;2023-10-09T04:00:36;4.70;;;4.30;;
2558;SDS011;1289;53.488;10.006;2023-10-09T04:03:10;6.70;;;4.70;;
2558;SDS011;1289;53.488;10.006;2023-10-09T04:05:39;5.00;;;4.47;;
2558;SDS011;1289;53.488;10.006;2023-10-09T04:08:07;5.10;;;4.20;;
2558;SDS011;1289;53.488;10.006;2023-10-09T04:10:39;4.97;;;4.50;;
2558;SDS011;1289;53.488;10.006;2023-10-09T04:13:16;7.20;;;4.40;;
2558;SDS011;1289;53.488;10.006;2023-10-09T04:15:47;4.40;;;4.00;;
2558;SDS011;1289;53.488;10.006;2023-10-09T04:18:15;5.07;;;4.40;;
2558;SDS011;1289;53.488;10.006;2023-10-09T04:20:53;6.60;;;4.10;;
2558;SDS011;1289;53.488;10.006;2023-10-09T04:23:39;4.60;;;4.20;;
2558;SDS011;1289;53.488;10.006;2023-10-09T04:26:25;4.87;;;4.37;;
2558;SDS011;1289;53.488;10.006;2023-10-09T04:28:51;4.70;;;4.30;;
2558;SDS011;1289;53.488;10.006;2023-10-09T04:31:19;4.30;;;3.90;;
2558;SDS011;1289;53.488;10.006;2023-10-09T04:33:47;4.63;;;4.00;;
2558;SDS011;1289;53.488;10.006;2023-10-09T04:36:40;5.33;;;4.10;;
2558;SDS011;1289;53.488;10.006;2023-10-09T04:39:13;5.73;;;4.20;;
2558;SDS011;1289;53.488;10.006;2023-10-09T04:42:02;4.63;;;3.93;;
2558;SDS011;1289;53.488;10.006;2023-10-09T04:44:58;6.90;;;4.00;;
2558;SDS011;1289;53.488;10.006;2023-10-09T04:47:42;5.20;;;4.70;;
2558;SDS011;1289;53.488;10.006;2023-10-09T04:50:23;4.10;;;3.70;;
2558;SDS011;1289;53.488;10.006;2023-10-09T04:53:07;5.63;;;3.60;;
2558;SDS011;1289;53.488;10.006;2023-10-09T04:55:48;4.40;;;4.00;;
2558;SDS011;1289;53.488;10.006;2023-10-09T04:58:22;4.57;;;3.80;;
2558;SDS011;1289;53.488;10.006;2023-10-09T05:00:53;4.27;;;3.87;;
2558;SDS011;1289;53.488;10.006;2023-10-09T05:03:30;4.30;;;3.77;;
2558;SDS011;1289;53.488;10.006;2023-10-09T05:06:10;6.23;;;4.30;;
2558;SDS011;1289;53.488;10.006;2023-10-09T05:08:54;4.50;;;4.00;;
2558;SDS011;1289;53.488;10.006;2023-10-09T05:11:32;4.43;;;4.13;;
2558;SDS011;1289;53.488;10.006;2023-10-09T05:14:18;4.23;;;3.93;;
2558;SDS011;1289;53.488;10.006;2023-10-09T05:16:52;6.00;;;3.67;;
2558;SDS011;1289;53.488;10.006;2023-10-09T05:19:26;5.90;;;4.47;;
2558;SDS011;1289;53.488;10.006;2023-10-09T05:21:59;5.13;;;4.23;;
2558;SDS011;1289;53.488;10.006;2023-10-09T05:24:29;4.30;;;4.00;;
2558;SDS011;1289;53.488;10.006;2023-10-09T05:27:08;4.30;;;4.00;;
2558;SDS011;1289;53.488;10.006;2023-10-09T05:29:45;4.50;;;4.10;;
2558;SDS011;1289;53.488;10.006;2023-10-09T05:32:24;8.10;;;4.20;;
2558;SDS011;1289;53.488;10.006;2023-10-09T05:34:55;4.80;;;4.37;;
2558;SDS011;1289;53.488;10.006;2023-10-09T05:37:33;5.07;;;4.43;;
2558;SDS011;1289;53.488;10.006;2023-10-09T05:40:00;4.93;;;4.53;;
2558;SDS011;1289;53.488;10.006;2023-10-09T05:42:47;4.77;;;4.27;;
2558;SDS011;1289;53.488;10.006;2023-10-09T05:45:24;6.33;;;4.43;;
2558;SDS011;1289;53.488;10.006;2023-10-09T05:48:09;6.70;;;4.50;;
2558;SDS011;1289;53.488;10.006;2023-10-09T05:50:49;5.23;;;4.30;;
2558;SDS011;1289;53.488;10.006;2023-10-09T05:53:30;5.27;;;4.23;;
2558;SDS011;1289;53.488;10.006;2023-10-09T05:56:21;4.70;;;4.30;;
2558;SDS011;1289;53.488;10.006;2023-10-09T05:59:05;5.07;;;4.37;;
2558;SDS011;1289;53.488;10.006;2023-10-09T06:01:50;5.77;;;5.10;;
2558;SDS011;1289;53.488;10.006;2023-10-09T06:04:34;4.20;;;3.80;;
2558;SDS011;1289;53.488;10.006;2023-10-09T06:07:14;10.80;;;4.30;;
2558;SDS011;1289;53.488;10.006;2023-10-09T06:09:48;5.07;;;4.53;;
2558;SDS011;1289;53.488;10.006;2023-10-09T06:12:18;4.33;;;3.80;;
2558;SDS011;1289;53.488;10.006;2023-10-09T06:15:14;5.60;;;4.23;;
2558;SDS011;1289;53.488;10.006;2023-10-09T06:18:17;4.60;;;4.13;;
2558;SDS011;1289;53.488;10.006;2023-10-09T06:20:59;4.67;;;4.27;;
2558;SDS011;1289;53.488;10.006;2023-10-09T06:23:35;5.07;;;4.43;;
2558;SDS011;1289;53.488;10.006;2023-10-09T06:26:33;4.63;;;4.23;;
2558;SDS011;1289;53.488;10.006;2023-10-09T06:29:00;8.80;;;4.63;;
2558;SDS011;1289;53.488;10.006;2023-10-09T06:31:41;4.93;;;4.37;;
2558;SDS011;1289;53.488;10.006;2023-10-09T06:34:24;4.83;;;4.30;;
2558;SDS011;1289;53.488;10.006;2023-10-09T06:37:00;8.10;;;4.37;;
2558;SDS011;1289;53.488;10.006;2023-10-09T06:39:34;6.20;;;4.50;;
2558;SDS011;1289;53.488;10.006;2023-10-09T06:42:32;5.53;;;5.03;;
2558;SDS011;1289;53.488;10.006;2023-10-09T06:45:09;7.23;;;4.90;;
2558;SDS011;1289;53.488;10.006;2023-10-09T06:47:41;5.57;;;4.97;;
2558;SDS011;1289;53.488;10.006;2023-10-09T06:50:09;7.37;;;4.80;;
2558;SDS011;1289;53.488;10.006;2023-10-09T06:52:49;6.60;;;5.80;;
2558;SDS011;1289;53.488;10.006;2023-10-09T06:55:39;5.03;;;4.63;;
2558;SDS011;1289;53.488;10.006;2023-10-09T06:58:15;5.03;;;4.60;;
2558;SDS011;1289;53.488;10.006;2023-10-09T07:00:47;5.83;;;5.30;;
2558;SDS011;1289;53.488;10.006;2023-10-09T07:03:37;6.70;;;5.30;;
2558;SDS011;1289;53.488;10.006;2023-10-09T07:06:18;5.20;;;4.70;;
2558;SDS011;1289;53.488;10.006;2023-10-09T07:09:11;5.40;;;5.00;;
2558;SDS011;1289;53.488;10.006;2023-10-09T07:11:46;7.17;;;6.07;;
2558;SDS011;1289;53.488;10.006;2023-10-09T07:14:24;5.50;;;5.00;;
2558;SDS011;1289;53.488;10.006;2023-10-09T07:17:09;6.10;;;5.37;;
2558;SDS011;1289;53.488;10.006;2023-10-09T07:19:47;6.00;;;5.50;;
2558;SDS011;1289;53.488;10.006;2023-10-09T07:22:36;6.40;;;5.80;;
2558;SDS011;1289;53.488;10.006;2023-10-09T07:25:18;5.77;;;5.27;;
2558;SDS011;1289;53.488;10.006;2023-10-09T07:28:06;6.23;;;5.23;;
2558;SDS011;1289;53.488;10.006;2023-10-09T07:30:43;5.50;;;5.00;;
2558;SDS011;1289;53.488;10.006;2023-10-09T07:33:11;6.80;;;5.50;;
2558;SDS011;1289;53.488;10.006;2023-10-09T07:35:43;5.73;;;5.23;;
2558;SDS011;1289;53.488;10.006;2023-10-09T07:38:16;5.70;;;5.20;;
2558;SDS011;1289;53.488;10.006;2023-10-09T07:40:46;5.30;;;4.90;;
2558;SDS011;1289;53.488;10.006;2023-10-09T07:43:21;6.40;;;5.43;;
2558;SDS011;1289;53.488;10.006;2023-10-09T07:45:51;5.87;;;5.33;;
2558;SDS011;1289;53.488;10.006;2023-10-09T07:48:48;5.40;;;4.90;;
2558;SDS011;1289;53.488;10.006;2023-10-09T07:51:18;5.20;;;4.80;;
2558;SDS011;1289;53.488;10.006;2023-10-09T07:53:48;5.00;;;4.63;;
2558;SDS011;1289;53.488;10.006;2023-10-09T07:56:22;5.33;;;4.90;;
2558;SDS011;1289;53.488;10.006;2023-10-09T07:58:49;6.90;;;5.50;;
2558;SDS011;1289;53.488;10.006;2023-10-09T08:01:17;6.10;;;5.30;;
2558;SDS011;1289;53.488;10.006;2023-10-09T08:03:49;6.23;;;4.80;;
2558;SDS011;1289;53.488;10.006;2023-10-09T08:06:27;6.77;;;6.17;;
2558;SDS011;1289;53.488;10.006;2023-10-09T08:09:08;5.90;;;4.93;;
2558;SDS011;1289;53.488;10.006;2023-10-09T08:11:53;5.73;;;5.13;;
2558;SDS011;1289;53.488;10.006;2023-10-09T08:14:37;6.10;;;5.50;;
2558;SDS011;1289;53.488;10.006;2023-10-09T08:17:10;7.70;;;5.40;;
2558;SDS011;1289;53.488;10.006;2023-10-09T08:19:42;6.20;;;5.60;;
2558;SDS011;1289;53.488;10.006;2023-10-09T08:22:23;6.73;;;6.17;;
2558;SDS011;1289;53.488;10.006;2023-10-09T08:25:08;6.50;;;5.90;;
2558;SDS011;1289;53.488;10.006;2023-10-09T08:27:51;7.17;;;5.70;;
2558;SDS011;1289;53.488;10.006;2023-10-09T08:30:22;6.90;;;6.20;;
2558;SDS011;1289;53.488;10.006;2023-10-09T08:33:06;6.73;;;5.80;;
2558;SDS011;1289;53.488;10.006;2023-10-09T08:35:52;6.00;;;5.33;;
2558;SDS011;1289;53.488;10.006;2023-10-09T08:38:21;5.40;;;5.00;;
2558;SDS011;1289;53.488;10.006;2023-10-09T08:40:49;6.33;;;5.80;;
2558;SDS011;1289;53.488;10.006;2023-10-09T08:43:23;6.87;;;6.27;;
2558;SDS011;1289;53.488;10.006;2023-10-09T08:45:51;6.13;;;5.63;;
2558;SDS011;1289;53.488;10.006;2023-10-09T08:48:26;6.00;;;5.47;;
2558;SDS011;1289;53.488;10.006;2023-10-09T08:50:55;6.20;;;5.70;;
2558;SDS011;1289;53.488;10.006;2023-10-09T08:53:22;8.20;;;5.43;;
2558;SDS011;1289;53.488;10.006;2023-10-09T08:55:53;6.23;;;5.73;;
2558;SDS011;1289;53.488;10.006;2023-10-09T08:58:21;6.97;;;6.33;;
2558;SDS011;1289;53.488;10.006;2023-10-09T09:00:55;7.60;;;6.90;;
2558;SDS011;1289;53.488;10.006;2023-10-09T09:03:23;6.97;;;6.37;;
2558;SDS011;1289;53.488;10.006;2023-10-09T09:05:58;6.00;;;5.50;;
2558;SDS011;1289;53.488;10.006;2023-10-09T09:08:26;6.67;;;6.07;;
2558;SDS011;1289;53.488;10.006;2023-10-09T09:10:57;6.53;;;5.93;;
2558;SDS011;1289;53.488;10.006;2023-10-09T09:13:30;5.40;;;4.90;;
2558;SDS011;1289;53.488;10.006;2023-10-09T09:15:59;8.20;;;6.00;;
2558;SDS011;1289;53.488;10.006;2023-10-09T09:18:25;5.50;;;5.00;;
2558;SDS011;1289;53.488;10.006;2023-10-09T09:20:58;6.10;;;5.60;;
2558;SDS011;1289;53.488;10.006;2023-10-09T09:23:25;6.33;;;5.83;;
2558;SDS011;1289;53.488;10.006;2023-10-09T09:25:52;5.87;;;5.37;;
2558;SDS011;1289;53.488;10.006;2023-10-09T09:28:24;6.77;;;5.87;;
2558;SDS011;1289;53.488;10.006;2023-10-09T09:30:52;5.47;;;5.07;;
2558;SDS011;1289;53.488;10.006;2023-10-09T09:33:20;6.10;;;5.60;;
2558;SDS011;1289;53.488;10.006;2023-10-09T09:35:55;6.10;;;5.50;;
2558;SDS011;1289;53.488;10.006;2023-10-09T09:38:25;6.63;;;4.90;;
2558;SDS011;1289;53.488;10.006;2023-10-09T09:40:54;6.20;;;5.60;;
2558;SDS011;1289;53.488;10.006;2023-10-09T09:43:23;5.40;;;4.90;;
2558;SDS011;1289;53.488;10.006;2023-10-09T09:45:50;5.33;;;4.93;;
2558;SDS011;1289;53.488;10.006;2023-10-09T09:48:22;4.90;;;4.50;;
2558;SDS011;1289;53.488;10.006;2023-10-09T09:50:49;5.60;;;5.10;;
2558;SDS011;1289;53.488;10.006;2023-10-09T09:53:19;5.77;;;5.23;;
2558;SDS011;1289;53.488;10.006;2023-10-09T09:55:51;5.87;;;5.27;;
2558;SDS011;1289;53.488;10.006;2023-10-09T09:58:21;5.33;;;4.93;;
2558;SDS011;1289;53.488;10.006;2023-10-09T10:00:48;4.77;;;4.47;;
2558;SDS011;1289;53.488;10.006;2023-10-09T10:03:19;4.80;;;4.50;;
2558;SDS011;1289;53.488;10.006;2023-10-09T10:05:48;5.87;;;5.37;;
2558;SDS011;1289;53.488;10.006;2023-10-09T10:08:16;5.37;;;4.87;;
2558;SDS011;1289;53.488;10.006;2023-10-09T10:10:45;5.43;;;4.93;;
2558;SDS011;1289;53.488;10.006;2023-10-09T10:13:19;5.50;;;5.10;;
2558;SDS011;1289;53.488;10.006;2023-10-09T10:16:24;5.73;;;5.23;;
2558;SDS011;1289;53.488;10.006;2023-10-09T10:18:59;5.23;;;4.73;;
2558;SDS011;1289;53.488;10.006;2023-10-09T10:21:32;5.93;;;5.33;;
2558;SDS011;1289;53.488;10.006;2023-10-09T10:24:04;5.60;;;5.20;;
2558;SDS011;1289;53.488;10.006;2023-10-09T10:26:32;5.20;;;4.80;;
2558;SDS011;1289;53.488;10.006;2023-10-09T10:29:17;4.50;;;4.20;;
2558;SDS011;1289;53.488;10.006;2023-10-09T10:31:52;5.20;;;4.80;;
2558;SDS011;1289;53.488;10.006;2023-10-09T10:34:23;4.97;;;4.57;;
2558;SDS011;1289;53.488;10.006;2023-10-09T10:36:50;5.60;;;5.07;;
2558;SDS011;1289;53.488;10.006;2023-10-09T10:39:24;5.60;;;5.20;;
2558;SDS011;1289;53.488;10.006;2023-10-09T10:42:08;5.70;;;5.20;;
2558;SDS011;1289;53.488;10.006;2023-10-09T10:44:42;4.77;;;4.37;;
2558;SDS011;1289;53.488;10.006;2023-10-09T10:47:11;4.83;;;4.43;;
2558;SDS011;1289;53.488;10.006;2023-10-09T10:49:57;5.00;;;4.60;;
2558;SDS011;1289;53.488;10.006;2023-10-09T10:52:33;5.20;;;4.80;;
2558;SDS011;1289;53.488;10.006;2023-10-09T10:55:10;4.93;;;4.53;;
2558;SDS011;1289;53.488;10.006;2023-10-09T10:57:54;5.40;;;4.43;;
2558;SDS011;1289;53.488;10.006;2023-10-09T11:00:29;4.87;;;4.37;;
2558;SDS011;1289;53.488;10.006;2023-10-09T11:03:19;4.77;;;4.37;;
2558;SDS011;1289;53.488;10.006;2023-10-09T11:05:54;4.83;;;4.43;;
2558;SDS011;1289;53.488;10.006;2023-10-09T11:08:23;4.60;;;4.30;;
2558;SDS011;1289;53.488;10.006;2023-10-09T11:10:52;4.60;;;4.20;;
2558;SDS011;1289;53.488;10.006;2023-10-09T11:13:23;4.60;;;4.20;;
2558;SDS011;1289;53.488;10.006;2023-10-09T11:16:01;4.83;;;4.43;;
2558;SDS011;1289;53.488;10.006;2023-10-09T11:18:54;4.23;;;3.90;;
2558;SDS011;1289;53.488;10.006;2023-10-09T11:21:22;4.50;;;4.13;;
2558;SDS011;1289;53.488;10.006;2023-10-09T11:23:59;4.50;;;4.10;;
2558;SDS011;1289;53.488;10.006;2023-10-09T11:26:47;4.40;;;4.10;;
2558;SDS011;1289;53.488;10.006;2023-10-09T11:29:19;4.97;;;4.50;;
2558;SDS011;1289;53.488;10.006;2023-10-09T11:31:58;4.30;;;3.93;;
2558;SDS011;1289;53.488;10.006;2023-10-09T11:34:25;4.70;;;4.30;;
2558;SDS011;1289;53.488;10.006;2023-10-09T11:37:00;6.70;;;4.50;;
2558;SDS011;1289;53.488;10.006;2023-10-09T11:39:27;4.70;;;4.30;;
2558;SDS011;1289;53.488;10.006;2023-10-09T11:42:03;5.60;;;5.10;;
2558;SDS011;1289;53.488;10.006;2023-10-09T11:44:35;5.13;;;4.73;;
2558;SDS011;1289;53.488;10.006;2023-10-09T11:47:06;5.93;;;5.43;;
2558;SDS011;1289;53.488;10.006;2023-10-09T11:49:58;4.80;;;4.40;;
2558;SDS011;1289;53.488;10.006;2023-10-09T11:52:54;4.97;;;4.57;;
2558;SDS011;1289;53.488;10.006;2023-10-09T11:55:34;4.23;;;3.93;;
2558;SDS011;1289;53.488;10.006;2023-10-09T11:58:04;5.10;;;4.70;;
2558;SDS011;1289;53.488;10.006;2023-10-09T12:00:32;4.97;;;4.47;;
2558;SDS011;1289;53.488;10.006;2023-10-09T12:03:11;5.60;;;5.10;;
2558;SDS011;1289;53.488;10.006;2023-10-09T12:05:38;5.47;;;5.00;;
2558;SDS011;1289;53.488;10.006;2023-10-09T12:08:09;4.77;;;4.37;;
2558;SDS011;1289;53.488;10.006;2023-10-09T12:10:35;5.23;;;4.73;;
2558;SDS011;1289;53.488;10.006;2023-10-09T12:13:03;5.47;;;4.97;;
2558;SDS011;1289;53.488;10.006;2023-10-09T12:15:30;5.07;;;4.67;;
2558;SDS011;1289;53.488;10.006;2023-10-09T12:18:02;5.10;;;4.57;;
2558;SDS011;1289;53.488;10.006;2023-10-09T12:20:33;5.60;;;5.20;;
2558;SDS011;1289;53.488;10.006;2023-10-09T12:23:01;6.57;;;5.80;;
2558;SDS011;1289;53.488;10.006;2023-10-09T12:25:30;5.77;;;5.27;;
2558;SDS011;1289;53.488;10.006;2023-10-09T12:27:57;5.30;;;4.83;;
2558;SDS011;1289;53.488;10.006;2023-10-09T12:30:26;6.17;;;5.70;;
2558;SDS011;1289;53.488;10.006;2023-10-09T12:32:53;7.50;;;6.90;;
2558;SDS011;1289;53.488;10.006;2023-10-09T12:35:20;6.60;;;6.00;;
2558;SDS011;1289;53.488;10.006;2023-10-09T12:37:49;8.10;;;7.40;;
2558;SDS011;1289;53.488;10.006;2023-10-09T12:40:16;7.50;;;6.80;;
2558;SDS011;1289;53.488;10.006;2023-10-09T12:42:49;6.80;;;6.20;;
2558;SDS011;1289;53.488;10.006;2023-10-09T12:45:17;7.10;;;6.50;;
2558;SDS011;1289;53.488;10.006;2023-10-09T12:47:45;7.97;;;7.17;;
2558;SDS011;1289;53.488;10.006;2023-10-09T12:50:12;7.03;;;6.43;;
2558;SDS011;1289;53.488;10.006;2023-10-09T12:52:39;6.77;;;6.17;;
2558;SDS011;1289;53.488;10.006;2023-10-09T12:55:08;6.27;;;5.70;;
2558;SDS011;1289;53.488;10.006;2023-10-09T12:57:44;5.90;;;5.40;;
2558;SDS011;1289;53.488;10.006;2023-10-09T13:00:13;5.20;;;4.70;;
2558;SDS011;1289;53.488;10.006;2023-10-09T13:02:50;7.97;;;7.37;;
2558;SDS011;1289;53.488;10.006;2023-10-09T13:05:17;7.30;;;6.70;;
2558;SDS011;1289;53.488;10.006;2023-10-09T13:07:51;6.40;;;5.90;;
2558;SDS011;1289;53.488;10.006;2023-10-09T13:10:19;6.17;;;5.67;;
2558;SDS011;1289;53.488;10.006;2023-10-09T13:12:48;6.00;;;5.50;;
2558;SDS011;1289;53.488;10.006;2023-10-09T13:15:21;5.50;;;5.10;;
2558;SDS011;1289;53.488;10.006;2023-10-09T13:17:47;6.27;;;5.77;;
2558;SDS011;1289;53.488;10.006;2023-10-09T13:20:14;5.87;;;5.37;;
2558;SDS011;1289;53.488;10.006;2023-10-09T13:22:41;5.97;;;5.40;;
2558;SDS011;1289;53.488;10.006;2023-10-09T13:25:09;5.50;;;5.10;;
2558;SDS011;1289;53.488;10.006;2023-10-09T13:27:42;5.30;;;4.87;;
2558;SDS011;1289;53.488;10.006;2023-10-09T13:30:16;5.20;;;4.57;;
2558;SDS011;1289;53.488;10.006;2023-10-09T13:32:48;5.57;;;5.07;;
2558;SDS011;1289;53.488;10.006;2023-10-09T13:35:16;5.77;;;5.27;;
2558;SDS011;1289;53.488;10.006;2023-10-09T13:37:43;5.50;;;5.00;;
2558;SDS011;1289;53.488;10.006;2023-10-09T13:40:19;5.30;;;4.90;;
2558;SDS011;1289;53.488;10.006;2023-10-09T13:42:54;5.17;;;4.73;;
2558;SDS011;1289;53.488;10.006;2023-10-09T13:45:24;4.53;;;4.13;;
2558;SDS011;1289;53.488;10.006;2023-10-09T13:47:53;5.80;;;4.67;;
2558;SDS011;1289;53.488;10.006;2023-10-09T13:50:20;7.30;;;4.83;;
2558;SDS011;1289;53.488;10.006;2023-10-09T13:52:47;5.10;;;4.70;;
2558;SDS011;1289;53.488;10.006;2023-10-09T13:55:14;4.80;;;4.40;;
2558;SDS011;1289;53.488;10.006;2023-10-09T13:57:41;4.23;;;3.80;;
2558;SDS011;1289;53.488;10.006;2023-10-09T14:00:12;5.07;;;4.60;;
2558;SDS011;1289;53.488;10.006;2023-10-09T14:02:42;6.47;;;5.93;;
2558;SDS011;1289;53.488;10.006;2023-10-09T14:05:11;5.60;;;5.20;;
2558;SDS011;1289;53.488;10.006;2023-10-09T14:07:39;7.00;;;5.03;;
2558;SDS011;1289;53.488;10.006;2023-10-09T14:10:07;4.87;;;4.47;;
2558;SDS011;1289;53.488;10.006;2023-10-09T14:12:42;4.97;;;4.57;;
2558;SDS011;1289;53.488;10.006;2023-10-09T14:15:10;5.67;;;5.17;;
2558;SDS011;1289;53.488;10.006;2023-10-09T14:17:42;6.17;;;5.67;;
2558;SDS011;1289;53.488;10.006;2023-10-09T14:20:11;5.30;;;4.90;;
2558;SDS011;1289;53.488;10.006;2023-10-09T14:22:58;5.67;;;5.27;;
2558;SDS011;1289;53.488;10.006;2023-10-09T14:25:31;4.73;;;4.43;;
2558;SDS011;1289;53.488;10.006;2023-10-09T14:27:59;5.93;;;5.37;;
2558;SDS011;1289;53.488;10.006;2023-10-09T14:30:27;5.50;;;5.10;;
2558;SDS011;1289;53.488;10.006;2023-10-09T14:32:58;5.97;;;5.47;;
2558;SDS011;1289;53.488;10.006;2023-10-09T14:35:27;5.67;;;5.17;;
2558;SDS011;1289;53.488;10.006;2023-10-09T14:37:55;6.00;;;5.40;;
2558;SDS011;1289;53.488;10.006;2023-10-09T14:40:22;5.23;;;4.83;;
2558;SDS011;1289;53.488;10.006;2023-10-09T14:42:55;5.97;;;5.47;;
2558;SDS011;1289;53.488;10.006;2023-10-09T14:45:23;5.50;;;5.10;;
2558;SDS011;1289;53.488;10.006;2023-10-09T14:47:52;5.90;;;5.50;;
2558;SDS011;1289;53.488;10.006;2023-10-09T14:50:19;5.63;;;5.13;;
2558;SDS011;1289;53.488;10.006;2023-10-09T14:52:48;6.50;;;5.37;;
2558;SDS011;1289;53.488;10.006;2023-10-09T14:55:15;6.67;;;6.17;;
2558;SDS011;1289;53.488;10.006;2023-10-09T14:57:46;5.57;;;5.07;;
2558;SDS011;1289;53.488;10.006;2023-10-09T15:00:15;6.63;;;5.97;;
2558;SDS011;1289;53.488;10.006;2023-10-09T15:02:49;8.17;;;5.40;;
2558;SDS011;1289;53.488;10.006;2023-10-09T15:05:18;5.37;;;4.70;;
2558;SDS011;1289;53.488;10.006;2023-10-09T15:07:44;6.90;;;5.03;;
2558;SDS011;1289;53.488;10.006;2023-10-09T15:10:11;4.70;;;4.40;;
2558;SDS011;1289;53.488;10.006;2023-10-09T15:12:40;6.10;;;5.43;;
2558;SDS011;1289;53.488;10.006;2023-10-09T15:15:08;5.67;;;5.17;;
2558;SDS011;1289;53.488;10.006;2023-10-09T15:17:38;6.00;;;5.40;;
2558;SDS011;1289;53.488;10.006;2023-10-09T15:20:08;5.97;;;5.43;;
2558;SDS011;1289;53.488;10.006;2023-10-09T15:22:41;6.80;;;5.20;;
2558;SDS011;1289;53.488;10.006;2023-10-09T15:25:08;5.70;;;5.07;;
2558;SDS011;1289;53.488;10.006;2023-10-09T15:27:39;7.23;;;6.63;;
2558;SDS011;1289;53.488;10.006;2023-10-09T15:30:06;6.60;;;6.00;;
2558;SDS011;1289;53.488;10.006;2023-10-09T15:32:38;8.50;;;7.70;;
2558;SDS011;1289;53.488;10.006;2023-10-09T15:35:05;6.53;;;5.90;;
2558;SDS011;1289;53.488;10.006;2023-10-09T15:37:35;9.03;;;7.17;;